createdAt,value
2023-03-16T00:00:16.392Z,100463.31
2023-03-16T00:01:07.035Z,100488.28
2023-03-16T00:01:55.506Z,100481.22
2023-03-16T00:02:36.451Z,100485.59
2023-03-16T00:03:21.699Z,100470.63
2023-03-16T00:04:01.386Z,100481.22
2023-03-16T00:04:41.575Z,100481.53
2023-03-16T00:05:22.394Z,100478.25
2023-03-16T00:06:03.520Z,100487.19
2023-03-16T00:06:43.393Z,100446.50
2023-03-16T00:07:24.711Z,100469.03
2023-03-16T00:08:04.464Z,100489.25
2023-03-16T00:08:44.549Z,100482.19
2023-03-16T00:09:24.420Z,100480.47
2023-03-16T00:10:05.562Z,100470.88
2023-03-16T00:10:45.399Z,100484.41
2023-03-16T00:11:25.609Z,100486.53
2023-03-16T00:12:09.390Z,100470.25
2023-03-16T00:12:50.488Z,100475.59
2023-03-16T00:13:31.407Z,100482.69
2023-03-16T00:14:12.483Z,100464.78
2023-03-16T00:14:55.393Z,100493.28
2023-03-16T00:15:35.503Z,100470.44
2023-03-16T00:16:15.449Z,100474.50
2023-03-16T00:16:55.492Z,100500.41
2023-03-16T00:17:35.372Z,100468.41
2023-03-16T00:18:16.526Z,100490.91
2023-03-16T00:18:56.408Z,100470.66
2023-03-16T00:19:36.475Z,100490.59
2023-03-16T00:20:18.368Z,100500.09
2023-03-16T00:21:02.108Z,100472.47
2023-03-16T00:21:42.390Z,100499.78
2023-03-16T00:22:23.490Z,100484.41
2023-03-16T00:23:03.398Z,100490.06
2023-03-16T00:23:43.520Z,100482.91
2023-03-16T00:24:25.406Z,100479.69
2023-03-16T00:25:05.519Z,100490.19
2023-03-16T00:25:45.362Z,100480.25
2023-03-16T00:26:28.465Z,100468.84
2023-03-16T00:27:08.378Z,100483.28
2023-03-16T00:27:48.516Z,100457.22
2023-03-16T00:28:30.385Z,100465.56
2023-03-16T00:29:11.836Z,100483.91
2023-03-16T00:29:54.387Z,100497.66
2023-03-16T00:30:35.459Z,100473.31
2023-03-16T00:31:21.383Z,100503.41
2023-03-16T00:32:03.404Z,100506.72
2023-03-16T00:32:44.402Z,100499.28
2023-03-16T00:33:25.449Z,100507.88
2023-03-16T00:34:05.396Z,100492.88
2023-03-16T00:34:46.471Z,100497.44
2023-03-16T00:35:28.393Z,100512.72
2023-03-16T00:36:11.364Z,100521.84
2023-03-16T00:36:51.382Z,100496.47
2023-03-16T00:37:33.465Z,100484.94
2023-03-16T00:38:13.347Z,100498.03
2023-03-16T00:38:54.451Z,100493.50
2023-03-16T00:39:34.347Z,100520.19
2023-03-16T00:40:16.784Z,100478.75
2023-03-16T00:40:57.384Z,100514.38
2023-03-16T00:41:38.134Z,100517.84
2023-03-16T00:42:21.354Z,100501.41
2023-03-16T00:43:02.461Z,100517.59
2023-03-16T00:43:47.358Z,100477.25
2023-03-16T00:44:27.443Z,100522.00
2023-03-16T00:45:08.355Z,100527.34
2023-03-16T00:45:48.506Z,100492.47
2023-03-16T00:46:33.365Z,100524.56
2023-03-16T00:47:15.597Z,100525.06
2023-03-16T00:47:55.344Z,100504.03
2023-03-16T00:48:35.532Z,100497.97
2023-03-16T00:49:16.376Z,100511.41
2023-03-16T00:49:56.453Z,100478.75
2023-03-16T00:50:36.323Z,100511.63
2023-03-16T00:51:22.928Z,100526.47
2023-03-16T00:52:03.400Z,100488.31
2023-03-16T00:52:43.447Z,100493.34
2023-03-16T00:53:23.330Z,100484.94
2023-03-16T00:54:05.008Z,100505.59
2023-03-16T00:54:45.347Z,100482.59
2023-03-16T00:55:28.499Z,100489.88
2023-03-16T00:56:10.359Z,100496.94
2023-03-16T00:56:51.254Z,100505.25
2023-03-16T00:57:34.376Z,100489.72
2023-03-16T00:58:15.484Z,100495.75
2023-03-16T00:58:55.331Z,100517.22
2023-03-16T00:59:37.894Z,100520.97
2023-03-16T01:00:22.338Z,100499.78
2023-03-16T01:01:02.593Z,100507.03
2023-03-16T01:01:43.345Z,100514.06
2023-03-16T01:02:25.420Z,100496.34
2023-03-16T01:03:05.426Z,100501.03
2023-03-16T01:03:46.470Z,100529.59
2023-03-16T01:04:26.321Z,100507.16
2023-03-16T01:05:06.419Z,100509.69
2023-03-16T01:05:48.358Z,100482.09
2023-03-16T01:06:28.445Z,100508.75
2023-03-16T01:07:11.329Z,100506.44
2023-03-16T01:07:52.442Z,100478.66
2023-03-16T01:08:35.369Z,100502.22
2023-03-16T01:09:15.409Z,100504.16
2023-03-16T01:09:56.322Z,100512.06
2023-03-16T01:10:36.417Z,100512.63
2023-03-16T01:11:22.338Z,100528.91
2023-03-16T01:12:03.436Z,100513.91
2023-03-16T01:12:43.317Z,100517.44
2023-03-16T01:13:23.523Z,100523.97
2023-03-16T01:14:03.374Z,100528.44
2023-03-16T01:14:45.946Z,100510.91
2023-03-16T01:15:26.339Z,100540.13
2023-03-16T01:16:07.785Z,100543.59
2023-03-16T01:16:52.375Z,100516.25
2023-03-16T01:17:35.081Z,100526.47
2023-03-16T01:18:15.305Z,100538.09
2023-03-16T01:18:56.895Z,100533.22
2023-03-16T01:19:41.343Z,100518.88
2023-03-16T01:20:22.409Z,100528.59
2023-03-16T01:21:02.314Z,100533.53
2023-03-16T01:21:42.684Z,100535.34
2023-03-16T01:22:24.319Z,100538.09
2023-03-16T01:23:04.568Z,100518.78
2023-03-16T01:23:44.380Z,100525.75
2023-03-16T01:24:25.401Z,100538.56
2023-03-16T01:25:05.347Z,100501.38
2023-03-16T01:25:52.874Z,100528.13
2023-03-16T01:26:34.344Z,100504.81
2023-03-16T01:27:15.459Z,100540.25
2023-03-16T01:27:55.318Z,100543.44
2023-03-16T01:28:38.983Z,100517.22
2023-03-16T01:29:19.296Z,100543.28
2023-03-16T01:30:00.115Z,100539.50
2023-03-16T01:30:42.380Z,100522.97
2023-03-16T01:31:23.458Z,100516.34
2023-03-16T01:32:04.351Z,100531.19
2023-03-16T01:32:45.505Z,100513.75
2023-03-16T01:33:25.312Z,100504.63
2023-03-16T01:34:06.401Z,100523.81
2023-03-16T01:34:46.302Z,100531.81
2023-03-16T01:35:26.439Z,100530.47
2023-03-16T01:36:13.354Z,100545.25
2023-03-16T01:36:55.466Z,100523.16
2023-03-16T01:37:35.320Z,100539.28
2023-03-16T01:38:15.547Z,100545.25
2023-03-16T01:38:56.296Z,100538.47
2023-03-16T01:39:37.491Z,100532.97
2023-03-16T01:40:19.295Z,100510.91
2023-03-16T01:41:01.387Z,100535.56
2023-03-16T01:41:41.324Z,100536.13
2023-03-16T01:42:22.437Z,100552.16
2023-03-16T01:43:11.288Z,100549.97
2023-03-16T01:43:51.925Z,100534.00
2023-03-16T01:44:39.282Z,100533.22
2023-03-16T01:46:06.447Z,100558.66
2023-03-16T01:46:49.325Z,100549.09
2023-03-16T01:47:30.428Z,100520.41
2023-03-16T01:48:11.285Z,100550.19
2023-03-16T01:49:06.483Z,100554.59
2023-03-16T01:49:47.285Z,100525.19
2023-03-16T01:50:27.599Z,100544.66
2023-03-16T01:51:10.276Z,100540.59
2023-03-16T01:52:11.372Z,100550.81
2023-03-16T01:52:45.770Z,100543.22
2023-03-16T01:53:34.437Z,100553.50
2023-03-16T01:54:48.364Z,100528.06
2023-03-16T01:55:36.261Z,100523.72
2023-03-16T01:56:11.048Z,100546.44
2023-03-16T01:57:09.274Z,100553.56
2023-03-16T01:57:52.254Z,100551.13
2023-03-16T01:58:32.372Z,100504.00
2023-03-16T01:59:18.279Z,100536.19
2023-03-16T02:00:10.435Z,100538.88
2023-03-16T02:00:52.272Z,100534.59
2023-03-16T02:01:36.428Z,100550.31
2023-03-16T02:02:22.284Z,100552.06
2023-03-16T02:03:06.366Z,100523.56
2023-03-16T02:03:48.251Z,100541.63
2023-03-16T02:05:07.075Z,100547.81
2023-03-16T02:05:59.267Z,100557.88
2023-03-16T02:06:40.358Z,100546.25
2023-03-16T02:07:23.307Z,100540.75
2023-03-16T02:08:03.351Z,100537.28
2023-03-16T02:08:45.280Z,100547.97
2023-03-16T02:09:26.428Z,100546.97
2023-03-16T02:10:12.255Z,100560.09
2023-03-16T02:10:54.698Z,100549.00
2023-03-16T02:11:35.285Z,100556.59
2023-03-16T02:12:18.372Z,100544.81
2023-03-16T02:13:00.300Z,100565.63
2023-03-16T02:13:43.464Z,100556.78
2023-03-16T02:14:23.252Z,100554.31
2023-03-16T02:15:04.606Z,100539.31
2023-03-16T02:15:46.295Z,100569.00
2023-03-16T02:16:28.362Z,100571.44
2023-03-16T02:17:08.236Z,100562.66
2023-03-16T02:17:51.347Z,100558.31
2023-03-16T02:18:31.299Z,100555.59
2023-03-16T02:19:19.358Z,100550.28
2023-03-16T02:20:29.743Z,100581.50
2023-03-16T02:21:48.397Z,100574.38
2023-03-16T02:22:31.239Z,100561.50
2023-03-16T02:23:18.751Z,100580.34
2023-03-16T02:24:00.262Z,100566.84
2023-03-16T02:24:42.392Z,100578.06
2023-03-16T02:25:25.275Z,100572.72
2023-03-16T02:26:39.382Z,100561.25
2023-03-16T02:27:30.261Z,100572.00
2023-03-16T02:28:31.349Z,100577.94
2023-03-16T02:30:15.262Z,100575.63
2023-03-16T02:30:55.367Z,100585.75
2023-03-16T02:31:36.246Z,100584.72
2023-03-16T02:32:17.356Z,100586.13
2023-03-16T02:32:59.321Z,100564.75
2023-03-16T02:33:40.709Z,100553.66
2023-03-16T02:34:24.221Z,100585.94
2023-03-16T02:35:06.336Z,100586.09
2023-03-16T02:35:47.290Z,100579.59
2023-03-16T02:36:28.317Z,100590.25
2023-03-16T02:37:09.218Z,100570.38
2023-03-16T02:37:49.341Z,100584.16
2023-03-16T02:38:29.231Z,100543.47
2023-03-16T02:39:09.323Z,100564.28
2023-03-16T02:39:50.226Z,100581.78
2023-03-16T02:40:36.331Z,100580.34
2023-03-16T02:41:23.260Z,100583.97
2023-03-16T02:42:03.822Z,100590.72
2023-03-16T02:42:44.228Z,100581.84
2023-03-16T02:43:33.325Z,100570.25
2023-03-16T02:44:30.224Z,100585.81
2023-03-16T02:45:11.379Z,100588.75
2023-03-16T02:46:02.281Z,100581.84
2023-03-16T02:46:43.313Z,100560.59
2023-03-16T02:47:25.453Z,100578.09
2023-03-16T02:48:03.734Z,100570.44
2023-03-16T02:48:56.214Z,100588.13
2023-03-16T02:49:37.352Z,100591.16
2023-03-16T02:50:12.586Z,100597.06
2023-03-16T02:50:55.240Z,100553.72
2023-03-16T02:51:29.521Z,100589.19
2023-03-16T02:52:14.279Z,100599.63
2023-03-16T02:52:54.320Z,100563.84
2023-03-16T02:53:34.233Z,100595.25
2023-03-16T02:54:14.319Z,100563.00
2023-03-16T02:54:54.210Z,100599.88
2023-03-16T02:55:34.300Z,100571.25
2023-03-16T02:56:16.206Z,100563.97
2023-03-16T02:56:57.318Z,100565.47
2023-03-16T02:57:38.266Z,100582.78
2023-03-16T02:58:20.329Z,100570.22
2023-03-16T02:59:00.237Z,100552.22
2023-03-16T02:59:41.580Z,100590.56
2023-03-16T03:00:23.229Z,100586.50
2023-03-16T03:01:04.333Z,100589.53
2023-03-16T03:01:44.212Z,100596.09
2023-03-16T03:02:53.273Z,100574.50
2023-03-16T03:03:47.244Z,100552.13
2023-03-16T03:04:41.221Z,100598.38
2023-03-16T03:05:35.221Z,100608.19
2023-03-16T03:06:29.222Z,100593.69
2023-03-16T03:07:23.192Z,100602.00
2023-03-16T03:08:11.212Z,100593.91
2023-03-16T03:08:45.278Z,100605.94
2023-03-16T03:09:32.175Z,100614.75
2023-03-16T03:10:06.275Z,100610.19
2023-03-16T03:10:53.208Z,100588.78
2023-03-16T03:11:27.761Z,100600.16
2023-03-16T03:12:19.225Z,100607.53
2023-03-16T03:12:53.307Z,100590.97
2023-03-16T03:13:34.220Z,100584.81
2023-03-16T03:14:16.723Z,100576.97
2023-03-16T03:14:57.198Z,100593.69
2023-03-16T03:15:37.316Z,100609.81
2023-03-16T03:16:18.243Z,100582.19
2023-03-16T03:17:12.196Z,100598.75
2023-03-16T03:18:06.221Z,100591.53
2023-03-16T03:18:54.255Z,100567.16
2023-03-16T03:19:28.313Z,100605.94
2023-03-16T03:20:23.169Z,100561.09
2023-03-16T03:20:57.302Z,100615.28
2023-03-16T03:21:45.184Z,100597.88
2023-03-16T03:22:19.275Z,100569.00
2023-03-16T03:23:06.180Z,100611.25
2023-03-16T03:23:40.308Z,100609.25
2023-03-16T03:24:20.220Z,100605.16
2023-03-16T03:25:02.751Z,100600.09
2023-03-16T03:25:43.182Z,100595.53
2023-03-16T03:26:24.835Z,100606.13
2023-03-16T03:27:12.183Z,100615.44
2023-03-16T03:27:57.059Z,100624.38
2023-03-16T03:28:38.186Z,100603.72
2023-03-16T03:29:18.469Z,100624.69
2023-03-16T03:29:59.217Z,100613.13
2023-03-16T03:30:39.325Z,100602.31
2023-03-16T03:31:27.212Z,100602.19
2023-03-16T03:32:09.303Z,100587.03
2023-03-16T03:32:50.291Z,100603.88
2023-03-16T03:33:33.667Z,100613.69
2023-03-16T03:34:14.175Z,100600.84
2023-03-16T03:34:54.265Z,100612.63
2023-03-16T03:35:34.236Z,100625.78
2023-03-16T03:36:14.293Z,100621.53
2023-03-16T03:36:54.174Z,100613.25
2023-03-16T03:37:34.302Z,100609.81
2023-03-16T03:38:15.181Z,100594.38
2023-03-16T03:38:55.333Z,100606.94
2023-03-16T03:39:36.162Z,100631.03
2023-03-16T03:40:20.293Z,100606.53
2023-03-16T03:41:05.196Z,100623.28
2023-03-16T03:41:46.251Z,100609.81
2023-03-16T03:42:26.155Z,100611.81
2023-03-16T03:43:06.446Z,100606.84
2023-03-16T03:43:46.155Z,100601.31
2023-03-16T03:44:28.346Z,100615.47
2023-03-16T03:45:09.172Z,100583.47
2023-03-16T03:45:49.360Z,100615.34
2023-03-16T03:46:30.272Z,100608.53
2023-03-16T03:47:11.334Z,100624.59
2023-03-16T03:47:52.147Z,100625.94
2023-03-16T03:48:32.316Z,100600.94
2023-03-16T03:49:12.171Z,100581.31
2023-03-16T03:49:52.268Z,100601.81
2023-03-16T03:50:32.196Z,100611.28
2023-03-16T03:51:12.377Z,100628.06
2023-03-16T03:51:53.190Z,100625.59
2023-03-16T03:52:34.286Z,100599.56
2023-03-16T03:53:15.167Z,100621.53
2023-03-16T03:53:56.393Z,100605.69
2023-03-16T03:54:36.138Z,100587.91
2023-03-16T03:55:17.261Z,100629.13
2023-03-16T03:55:58.156Z,100620.31
2023-03-16T03:56:38.395Z,100608.88
2023-03-16T03:57:21.762Z,100591.53
2023-03-16T03:58:02.276Z,100589.84
2023-03-16T03:58:43.151Z,100637.53
2023-03-16T03:59:23.280Z,100645.16
2023-03-16T04:00:03.153Z,100608.09
2023-03-16T04:00:43.248Z,100632.28
2023-03-16T04:01:24.136Z,100620.94
2023-03-16T04:02:04.380Z,100643.44
2023-03-16T04:02:45.252Z,100638.22
2023-03-16T04:03:25.249Z,100646.31
2023-03-16T04:04:05.140Z,100615.88
2023-03-16T04:04:46.241Z,100643.78
2023-03-16T04:05:27.144Z,100620.19
2023-03-16T04:06:08.175Z,100631.63
2023-03-16T04:06:49.148Z,100616.78
2023-03-16T04:07:29.336Z,100634.31
2023-03-16T04:08:10.151Z,100639.66
2023-03-16T04:08:51.294Z,100617.19
2023-03-16T04:09:31.168Z,100646.19
2023-03-16T04:10:14.519Z,100613.06
2023-03-16T04:10:55.152Z,100640.44
2023-03-16T04:11:35.242Z,100637.50
2023-03-16T04:12:17.138Z,100611.22
2023-03-16T04:12:58.269Z,100640.50
2023-03-16T04:13:39.133Z,100646.03
2023-03-16T04:14:19.228Z,100615.63
2023-03-16T04:14:59.117Z,100623.66
2023-03-16T04:15:40.592Z,100623.28
2023-03-16T04:16:24.167Z,100618.69
2023-03-16T04:17:04.941Z,100641.00
2023-03-16T04:17:45.113Z,100628.59
2023-03-16T04:18:25.227Z,100600.50
2023-03-16T04:19:05.159Z,100625.00
2023-03-16T04:19:46.210Z,100647.38
2023-03-16T04:20:27.342Z,100638.72
2023-03-16T04:21:07.231Z,100629.59
2023-03-16T04:21:48.156Z,100634.44
2023-03-16T04:22:30.308Z,100615.41
2023-03-16T04:23:11.125Z,100598.09
2023-03-16T04:23:54.422Z,100632.44
2023-03-16T04:24:34.162Z,100636.44
2023-03-16T04:25:16.219Z,100611.41
2023-03-16T04:25:57.112Z,100605.16
2023-03-16T04:26:39.855Z,100630.09
2023-03-16T04:27:21.115Z,100642.38
2023-03-16T04:28:02.120Z,100618.19
2023-03-16T04:28:42.115Z,100619.94
2023-03-16T04:29:25.477Z,100629.78
2023-03-16T04:30:06.144Z,100635.13
2023-03-16T04:30:46.235Z,100615.00
2023-03-16T04:31:27.118Z,100633.72
2023-03-16T04:32:07.231Z,100620.72
2023-03-16T04:32:48.140Z,100620.22
2023-03-16T04:33:29.192Z,100622.25
2023-03-16T04:34:10.099Z,100631.63
2023-03-16T04:34:50.210Z,100636.16
2023-03-16T04:35:31.213Z,100640.91
2023-03-16T04:36:13.253Z,100606.63
2023-03-16T04:36:53.115Z,100649.88
2023-03-16T04:37:34.486Z,100605.81
2023-03-16T04:38:15.130Z,100617.56
2023-03-16T04:38:55.221Z,100626.56
2023-03-16T04:39:36.167Z,100599.50
2023-03-16T04:40:17.401Z,100603.69
2023-03-16T04:40:58.132Z,100619.47
2023-03-16T04:41:39.232Z,100610.63
2023-03-16T04:42:20.121Z,100633.13
2023-03-16T04:43:00.197Z,100644.34
2023-03-16T04:43:43.111Z,100645.09
2023-03-16T04:44:25.833Z,100629.00
2023-03-16T04:45:06.097Z,100658.22
2023-03-16T04:45:46.198Z,100636.59
2023-03-16T04:46:27.295Z,100632.13
2023-03-16T04:47:08.192Z,100626.13
2023-03-16T04:47:48.131Z,100629.19
2023-03-16T04:48:28.648Z,100653.09
2023-03-16T04:49:10.105Z,100658.56
2023-03-16T04:49:50.223Z,100662.28
2023-03-16T04:50:31.181Z,100640.06
2023-03-16T04:51:13.198Z,100631.38
2023-03-16T04:51:53.116Z,100642.56
2023-03-16T04:52:33.221Z,100646.56
2023-03-16T04:53:14.063Z,100665.28
2023-03-16T04:53:54.191Z,100626.19
2023-03-16T04:54:35.097Z,100661.28
2023-03-16T04:55:16.244Z,100652.63
2023-03-16T04:55:57.113Z,100626.59
2023-03-16T04:56:37.241Z,100666.81
2023-03-16T04:57:17.140Z,100647.03
2023-03-16T04:57:57.176Z,100669.75
2023-03-16T04:58:38.073Z,100627.38
2023-03-16T04:59:18.165Z,100639.66
2023-03-16T04:59:59.079Z,100657.50
2023-03-16T05:00:39.226Z,100646.31
2023-03-16T05:01:20.103Z,100646.72
2023-03-16T05:02:00.174Z,100659.88
2023-03-16T05:02:41.329Z,100663.59
2023-03-16T05:03:22.226Z,100633.50
2023-03-16T05:04:03.107Z,100656.00
2023-03-16T05:04:43.172Z,100656.22
2023-03-16T05:05:24.120Z,100656.09
2023-03-16T05:06:05.200Z,100650.94
2023-03-16T05:06:53.065Z,100668.81
2023-03-16T05:07:27.180Z,100666.47
2023-03-16T05:08:08.128Z,100667.28
2023-03-16T05:08:48.768Z,100651.41
2023-03-16T05:09:29.074Z,100670.00
2023-03-16T05:10:27.613Z,100638.16
2023-03-16T05:11:09.064Z,100676.47
2023-03-16T05:11:49.239Z,100640.84
2023-03-16T05:12:30.071Z,100663.28
2023-03-16T05:13:18.106Z,100666.63
2023-03-16T05:14:12.084Z,100637.91
2023-03-16T05:15:06.080Z,100676.00
2023-03-16T05:16:02.204Z,100656.03
2023-03-16T05:16:56.079Z,100660.03
2023-03-16T05:17:51.079Z,100671.22
2023-03-16T05:18:40.077Z,100652.16
2023-03-16T05:19:14.279Z,100664.75
2023-03-16T05:20:01.048Z,100665.94
2023-03-16T05:20:35.886Z,100659.41
2023-03-16T05:21:23.068Z,100680.25
2023-03-16T05:21:57.173Z,100678.19
2023-03-16T05:22:47.052Z,100682.66
2023-03-16T05:23:21.159Z,100668.38
2023-03-16T05:24:01.082Z,100683.03
2023-03-16T05:24:41.149Z,100680.38
2023-03-16T05:25:24.048Z,100667.66
2023-03-16T05:26:04.208Z,100674.28
2023-03-16T05:26:45.039Z,100665.31
2023-03-16T05:27:25.144Z,100671.19
2023-03-16T05:28:06.047Z,100687.28
2023-03-16T05:28:46.165Z,100688.00
2023-03-16T05:29:27.100Z,100682.66
2023-03-16T05:30:07.151Z,100682.53
2023-03-16T05:30:49.088Z,100691.69
2023-03-16T05:31:32.577Z,100669.97
2023-03-16T05:32:14.028Z,100678.34
2023-03-16T05:32:56.695Z,100688.34
2023-03-16T05:33:38.061Z,100692.09
2023-03-16T05:34:18.127Z,100682.88
2023-03-16T05:35:00.078Z,100669.69
2023-03-16T05:35:40.197Z,100659.59
2023-03-16T05:36:21.040Z,100668.72
2023-03-16T05:37:01.136Z,100674.13
2023-03-16T05:37:44.036Z,100667.69
2023-03-16T05:38:24.158Z,100686.38
2023-03-16T05:39:06.033Z,100684.19
2023-03-16T05:39:46.140Z,100692.72
2023-03-16T05:40:29.445Z,100679.47
2023-03-16T05:41:10.353Z,100689.84
2023-03-16T05:41:51.034Z,100678.25
2023-03-16T05:42:32.168Z,100676.69
2023-03-16T05:43:13.044Z,100689.38
2023-03-16T05:43:54.165Z,100691.69
2023-03-16T05:44:35.047Z,100667.56
2023-03-16T05:45:16.132Z,100688.53
2023-03-16T05:45:57.059Z,100697.03
2023-03-16T05:46:38.221Z,100673.25
2023-03-16T05:47:19.065Z,100701.31
2023-03-16T05:47:59.200Z,100695.63
2023-03-16T05:48:39.044Z,100692.91
2023-03-16T05:49:19.129Z,100675.72
2023-03-16T05:50:00.021Z,100689.59
2023-03-16T05:50:40.166Z,100684.38
2023-03-16T05:51:21.039Z,100696.75
2023-03-16T05:52:01.130Z,100701.69
2023-03-16T05:52:42.036Z,100704.16
2023-03-16T05:53:28.993Z,100703.41
2023-03-16T05:54:10.033Z,100702.44
2023-03-16T05:54:50.115Z,100698.88
2023-03-16T05:55:31.008Z,100690.44
2023-03-16T05:56:11.164Z,100698.75
2023-03-16T05:56:52.063Z,100703.88
2023-03-16T05:57:32.143Z,100706.47
2023-03-16T05:58:12.003Z,100685.41
2023-03-16T05:58:52.155Z,100706.38
2023-03-16T05:59:33.030Z,100697.78
2023-03-16T06:00:29.435Z,100705.50
2023-03-16T06:01:24.034Z,100658.28
2023-03-16T06:02:12.035Z,100649.22
2023-03-16T06:02:49.295Z,100692.63
2023-03-16T06:03:36.051Z,100701.19
2023-03-16T06:04:10.137Z,100678.91
2023-03-16T06:04:57.013Z,100705.69
2023-03-16T06:05:32.050Z,100703.56
2023-03-16T06:06:20.047Z,100710.34
2023-03-16T06:06:54.213Z,100712.47
2023-03-16T06:07:35.081Z,100696.81
2023-03-16T06:08:15.423Z,100710.34
2023-03-16T06:08:56.038Z,100699.81
2023-03-16T06:09:36.123Z,100698.09
2023-03-16T06:10:18.013Z,100695.63
2023-03-16T06:10:58.132Z,100713.88
2023-03-16T06:11:38.995Z,100686.09
2023-03-16T06:12:19.106Z,100696.63
2023-03-16T06:13:00.082Z,100705.03
2023-03-16T06:13:40.108Z,100713.41
2023-03-16T06:14:20.001Z,100682.78
2023-03-16T06:15:00.130Z,100703.41
2023-03-16T06:15:40.996Z,100714.53
2023-03-16T06:16:21.157Z,100714.09
2023-03-16T06:17:02.013Z,100705.22
2023-03-16T06:17:44.187Z,100710.94
2023-03-16T06:18:24.021Z,100716.91
2023-03-16T06:19:04.101Z,100721.28
2023-03-16T06:19:45.005Z,100705.31
2023-03-16T06:20:25.110Z,100708.28
2023-03-16T06:21:06.012Z,100723.28
2023-03-16T06:21:46.133Z,100707.19
2023-03-16T06:22:26.022Z,100734.22
2023-03-16T06:23:06.123Z,100705.06
2023-03-16T06:23:46.995Z,100724.00
2023-03-16T06:24:28.147Z,100725.75
2023-03-16T06:25:08.994Z,100722.88
2023-03-16T06:25:49.123Z,100739.03
2023-03-16T06:26:30.013Z,100711.91
2023-03-16T06:27:11.160Z,100711.09
2023-03-16T06:27:52.014Z,100721.13
2023-03-16T06:28:32.077Z,100714.75
2023-03-16T06:29:12.990Z,100714.81
2023-03-16T06:29:54.114Z,100736.19
2023-03-16T06:30:34.975Z,100743.34
2023-03-16T06:31:15.313Z,100721.69
2023-03-16T06:31:58.098Z,100716.25
2023-03-16T06:32:38.169Z,100735.63
2023-03-16T06:33:17.992Z,100728.34
2023-03-16T06:33:58.076Z,100738.75
2023-03-16T06:34:38.373Z,100717.81
2023-03-16T06:35:20.080Z,100739.88
2023-03-16T06:36:01.001Z,100747.41
2023-03-16T06:36:41.085Z,100731.97
2023-03-16T06:37:21.973Z,100735.03
2023-03-16T06:38:02.082Z,100714.63
2023-03-16T06:38:41.974Z,100749.41
2023-03-16T06:39:22.064Z,100741.53
2023-03-16T06:40:03.005Z,100743.91
2023-03-16T06:40:43.056Z,100746.09
2023-03-16T06:41:23.977Z,100739.97
2023-03-16T06:42:05.407Z,100749.91
2023-03-16T06:42:47.393Z,100734.09
2023-03-16T06:43:28.069Z,100723.63
2023-03-16T06:44:08.965Z,100742.63
2023-03-16T06:44:49.151Z,100737.06
2023-03-16T06:45:30.059Z,100747.72
2023-03-16T06:46:10.188Z,100743.69
2023-03-16T06:46:50.965Z,100747.03
2023-03-16T06:47:32.430Z,100746.16
2023-03-16T06:48:13.974Z,100745.88
2023-03-16T06:48:47.756Z,100749.19
2023-03-16T06:49:34.949Z,100748.97
2023-03-16T06:50:12.605Z,100746.59
2023-03-16T06:50:53.971Z,100755.25
2023-03-16T06:51:28.085Z,100742.09
2023-03-16T06:52:03.356Z,100740.44
2023-03-16T06:52:43.023Z,100745.34
2023-03-16T06:53:17.067Z,100749.69
2023-03-16T06:53:50.818Z,100744.84
2023-03-16T06:54:32.016Z,100747.34
2023-03-16T06:55:06.143Z,100760.38
2023-03-16T06:55:41.504Z,100746.28
2023-03-16T06:56:21.976Z,100741.50
2023-03-16T06:56:56.031Z,100740.69
2023-03-16T06:57:29.708Z,100740.97
2023-03-16T06:58:09.964Z,100741.78
2023-03-16T06:58:44.063Z,100735.63
2023-03-16T06:59:19.039Z,100758.00
2023-03-16T06:59:58.966Z,100739.81
2023-03-16T07:00:34.095Z,100761.91
2023-03-16T07:01:07.803Z,100743.88
2023-03-16T07:01:48.977Z,100749.13
2023-03-16T07:02:41.106Z,100751.50
2023-03-16T07:03:18.122Z,100730.16
2023-03-16T07:03:58.976Z,100765.91
2023-03-16T07:04:34.025Z,100757.50
2023-03-16T07:05:10.986Z,100756.41
2023-03-16T07:05:53.946Z,100746.56
2023-03-16T07:06:28.244Z,100746.84
2023-03-16T07:07:27.966Z,100764.84
2023-03-16T07:08:10.145Z,100757.31
2023-03-16T07:08:50.934Z,100737.50
2023-03-16T07:09:31.662Z,100760.06
2023-03-16T07:10:12.953Z,100754.44
2023-03-16T07:10:54.618Z,100729.97
2023-03-16T07:11:34.974Z,100740.97
2023-03-16T07:12:17.042Z,100756.41
2023-03-16T07:12:57.023Z,100762.47
2023-03-16T07:13:38.051Z,100768.25
2023-03-16T07:14:17.999Z,100746.50
2023-03-16T07:14:59.122Z,100765.13
2023-03-16T07:15:39.921Z,100781.91
2023-03-16T07:16:21.953Z,100748.56
2023-03-16T07:17:02.946Z,100761.13
2023-03-16T07:17:43.132Z,100766.88
2023-03-16T07:18:22.983Z,100756.19
2023-03-16T07:19:04.060Z,100763.53
2023-03-16T07:19:43.928Z,100748.38
2023-03-16T07:20:27.008Z,100763.63
2023-03-16T07:21:07.943Z,100739.50
2023-03-16T07:21:48.050Z,100748.50
2023-03-16T07:22:28.905Z,100759.25
2023-03-16T07:23:13.041Z,100756.38
2023-03-16T07:23:52.939Z,100766.31
2023-03-16T07:24:34.069Z,100735.53
2023-03-16T07:25:17.940Z,100759.13
2023-03-16T07:25:59.067Z,100764.19
2023-03-16T07:26:41.943Z,100748.28
2023-03-16T07:27:23.631Z,100741.59
2023-03-16T07:28:04.922Z,100762.47
2023-03-16T07:28:46.005Z,100771.81
2023-03-16T07:29:28.930Z,100756.88
2023-03-16T07:30:12.061Z,100749.72
2023-03-16T07:31:03.486Z,100762.72
2023-03-16T07:31:45.061Z,100753.06
2023-03-16T07:32:26.962Z,100747.44
2023-03-16T07:33:07.086Z,100763.13
2023-03-16T07:33:47.912Z,100730.34
2023-03-16T07:34:35.944Z,100742.34
2023-03-16T07:35:11.582Z,100761.94
2023-03-16T07:35:58.960Z,100748.69
2023-03-16T07:36:38.778Z,100770.31
2023-03-16T07:37:26.935Z,100760.00
2023-03-16T07:38:01.470Z,100771.69
2023-03-16T07:38:49.896Z,100770.88
2023-03-16T07:39:23.849Z,100772.09
2023-03-16T07:40:03.959Z,100777.25
2023-03-16T07:40:39.258Z,100764.47
2023-03-16T07:41:14.085Z,100773.44
2023-03-16T07:41:54.899Z,100776.56
2023-03-16T07:42:29.099Z,100760.84
2023-03-16T07:43:02.736Z,100778.47
2023-03-16T07:43:43.936Z,100744.53
2023-03-16T07:44:18.074Z,100777.44
2023-03-16T07:44:52.731Z,100763.72
2023-03-16T07:45:33.931Z,100770.84
2023-03-16T07:46:09.008Z,100757.00
2023-03-16T07:46:55.894Z,100748.16
2023-03-16T07:47:31.505Z,100750.75
2023-03-16T07:48:18.885Z,100773.94
2023-03-16T07:48:55.968Z,100780.09
2023-03-16T07:49:42.905Z,100779.97
2023-03-16T07:50:19.261Z,100784.97
2023-03-16T07:51:00.963Z,100781.50
2023-03-16T07:51:44.053Z,100781.50
2023-03-16T07:52:24.912Z,100780.69
2023-03-16T07:53:06.063Z,100772.28
2023-03-16T07:53:46.983Z,100784.81
2023-03-16T07:54:26.988Z,100775.88
2023-03-16T07:55:08.886Z,100777.47
2023-03-16T07:55:50.038Z,100787.56
2023-03-16T07:56:42.344Z,100764.03
2023-03-16T07:57:27.981Z,100759.22
2023-03-16T07:58:12.886Z,100791.19
2023-03-16T07:58:52.987Z,100768.66
2023-03-16T07:59:33.888Z,100775.81